Time;durP1;ratioP1;P1;durP2;ratioP2;P2;SDS_P1;SDS_P2;PMS_P1;PMS_P2;Temp;Humidity;BMP_temperature;BMP_pressure;BME280_temperature;BME280_humidity;BME280_pressure;Samples;Min_cycle;Max_cycle;Signal;HPM_P1;HPM_P2
2023/06/07 00:01:44;;;;;;;4.20;2.60;;;;;;;14.28;90.04;95828.67;106766;1275;26009;-71
2023/06/07 00:04:13;;;;;;;3.20;2.40;;;;;;;14.24;90.27;95827.56;106566;1275;22517;-71
2023/06/07 00:06:41;;;;;;;2.70;2.10;;;;;;;14.21;90.30;95829.23;106566;1267;25343;-71
2023/06/07 00:09:09;;;;;;;5.20;2.60;;;;;;;14.18;90.79;95825.78;106712;1275;22551;-71
2023/06/07 00:11:38;;;;;;;6.60;2.40;;;;;;;14.22;91.21;95831.17;106610;1275;22520;-71
2023/06/07 00:14:06;;;;;;;4.30;2.60;;;;;;;14.32;91.37;95828.04;106727;1275;22527;-71
2023/06/07 00:16:34;;;;;;;6.30;2.60;;;;;;;14.40;91.14;95819.83;106695;1275;23056;-71
2023/06/07 00:19:03;;;;;;;6.10;2.40;;;;;;;14.38;89.94;95816.19;106714;1275;24233;-71
2023/06/07 00:21:32;;;;;;;7.00;2.60;;;;;;;14.34;90.18;95816.48;106743;1275;22564;-72
2023/06/07 00:24:00;;;;;;;3.90;2.30;;;;;;;14.32;90.10;95814.23;106591;1275;24196;-71
2023/06/07 00:26:28;;;;;;;3.10;2.30;;;;;;;14.34;90.36;95809.73;106813;1275;22529;-71
2023/06/07 00:28:57;;;;;;;7.10;2.60;;;;;;;14.36;90.16;95811.99;106715;1275;25448;-71
2023/06/07 00:31:25;;;;;;;4.80;2.60;;;;;;;14.39;90.22;95805.88;106677;1275;22563;-71
2023/06/07 00:33:54;;;;;;;8.10;3.10;;;;;;;14.43;90.21;95807.89;106776;1275;22525;-71
2023/06/07 00:36:22;;;;;;;5.00;2.30;;;;;;;14.47;89.74;95805.64;106611;1275;25318;-71
2023/06/07 00:38:51;;;;;;;4.50;2.20;;;;;;;14.39;88.87;95810.31;106740;1275;22519;-70
2023/06/07 00:41:21;;;;;;;5.20;2.60;;;;;;;14.34;89.36;95806.21;106735;1275;25383;-72
2023/06/07 00:43:49;;;;;;;3.30;2.30;;;;;;;14.38;89.89;95805.20;106460;1275;22521;-71
2023/06/07 00:46:19;;;;;;;2.60;2.20;;;;;;;14.40;89.42;95807.26;106638;1275;24335;-71
2023/06/07 00:48:50;;;;;;;3.00;2.30;;;;;;;14.40;89.52;95804.98;106576;1275;22534;-71
2023/06/07 00:51:19;;;;;;;3.10;2.50;;;;;;;14.38;89.31;95799.88;106697;1274;22601;-71
2023/06/07 00:53:51;;;;;;;2.90;2.00;;;;;;;14.34;89.16;95794.89;106723;1275;22534;-71
2023/06/07 00:56:20;;;;;;;4.50;2.70;;;;;;;14.32;89.64;95793.88;106718;1274;25498;-71
2023/06/07 00:58:48;;;;;;;5.10;2.20;;;;;;;14.36;89.61;95788.98;106685;1274;23876;-71
2023/06/07 01:01:17;;;;;;;4.60;2.30;;;;;;;14.40;89.63;95789.94;106645;1256;24399;-71
2023/06/07 01:03:46;;;;;;;2.50;2.30;;;;;;;14.42;89.19;95786.31;106719;1275;22865;-71
2023/06/07 01:06:15;;;;;;;3.20;2.50;;;;;;;14.38;88.90;95783.98;106643;1275;22524;-71
2023/06/07 01:08:44;;;;;;;2.90;2.10;;;;;;;14.38;89.29;95774.77;106677;1275;25482;-71
2023/06/07 01:11:15;;;;;;;6.20;2.50;;;;;;;14.44;89.56;95776.73;106718;1275;22521;-71
2023/06/07 01:13:44;;;;;;;4.40;2.30;;;;;;;14.50;89.47;95779.89;106671;1275;22536;-71
2023/06/07 01:16:13;;;;;;;4.30;2.80;;;;;;;14.56;89.03;95780.61;106725;1275;22532;-71
2023/06/07 01:18:42;;;;;;;4.50;3.30;;;;;;;14.56;88.58;95781.67;106792;1275;25305;-71
2023/06/07 01:21:15;;;;;;;5.60;3.00;;;;;;;14.55;88.22;95784.73;106755;1274;25229;-71
2023/06/07 01:23:43;;;;;;;3.80;2.40;;;;;;;14.45;87.53;95792.61;106736;1275;22634;-71
2023/06/07 01:26:12;;;;;;;4.50;2.70;;;;;;;14.27;87.67;95792.45;106596;1275;24265;-71
2023/06/07 01:28:44;;;;;;;9.30;3.10;;;;;;;14.12;88.52;95789.15;106662;1275;25491;-72
2023/06/07 01:31:15;;;;;;;4.50;2.80;;;;;;;14.08;89.22;95783.98;106778;1275;25505;-72
2023/06/07 01:33:45;;;;;;;4.30;3.10;;;;;;;14.08;89.37;95779.38;106724;1275;22515;-72
2023/06/07 01:36:15;;;;;;;4.90;3.30;;;;;;;14.04;89.26;95787.45;107016;1275;22522;-72
2023/06/07 01:38:46;;;;;;;5.60;3.30;;;;;;;13.94;88.69;95784.91;106661;1275;22541;-71
2023/06/07 01:41:16;;;;;;;3.50;3.10;;;;;;;13.87;88.98;95778.76;106679;1275;25268;-72
2023/06/07 01:43:48;;;;;;;3.60;3.20;;;;;;;13.80;89.27;95785.67;106693;1254;25475;-72
2023/06/07 01:46:17;;;;;;;4.10;3.30;;;;;;;13.76;89.30;95784.19;106612;1275;22536;-72
2023/06/07 01:48:45;;;;;;;4.90;3.00;;;;;;;13.75;89.72;95781.73;106745;1275;25223;-72
2023/06/07 01:51:13;;;;;;;3.10;2.80;;;;;;;13.67;89.84;95785.67;106726;1275;24189;-72
2023/06/07 01:53:43;;;;;;;4.40;2.90;;;;;;;13.62;89.59;95784.91;106683;1275;22991;-72
2023/06/07 01:56:40;;;;;;;4.90;3.30;;;;;;;13.57;89.73;95778.70;106582;1275;22520;-72
2023/06/07 01:59:29;;;;;;;5.40;2.90;;;;;;;13.54;89.79;95783.90;106690;1275;24364;-72
2023/06/07 02:02:01;;;;;;;3.20;2.80;;;;;;;13.52;89.98;95783.81;106600;1275;24203;-72
2023/06/07 02:04:32;;;;;;;4.00;3.20;;;;;;;13.40;90.77;95784.11;106709;1275;24377;-72
2023/06/07 02:07:05;;;;;;;4.20;3.00;;;;;;;13.37;91.02;95778.89;106728;1275;22521;-72
2023/06/07 02:09:35;;;;;;;;;;;;;;;13.34;91.33;95783.20;106658;1266;24422;-73
2023/06/07 02:12:05;;;;;;;5.30;3.60;;;;;;;13.34;91.14;95787.98;106699;1275;25455;-72
2023/06/07 02:14:36;;;;;;;5.70;3.20;;;;;;;13.38;91.41;95783.98;106724;1275;22626;-72
2023/06/07 02:17:08;;;;;;;5.70;3.00;;;;;;;13.42;91.61;95778.75;106664;1275;22843;-72
2023/06/07 02:19:37;;;;;;;6.00;4.50;;;;;;;13.50;92.16;95770.94;106601;1275;25235;-71
2023/06/07 02:22:06;;;;;;;7.10;3.80;;;;;;;13.58;92.16;95771.42;106664;1275;24274;-72
2023/06/07 02:24:34;;;;;;;6.50;4.00;;;;;;;13.61;92.04;95778.23;106801;1275;25492;-71
2023/06/07 02:27:03;;;;;;;6.20;3.30;;;;;;;13.63;91.59;95778.17;106689;1275;25511;-72
2023/06/07 02:29:31;;;;;;;4.90;3.20;;;;;;;13.66;91.47;95776.88;106587;1274;24328;-71
2023/06/07 02:32:00;;;;;;;4.30;2.90;;;;;;;13.65;90.83;95777.42;106733;1275;26499;-72
2023/06/07 02:34:36;;;;;;;4.00;3.20;;;;;;;13.63;91.02;95782.06;106760;1275;22521;-72
2023/06/07 02:37:05;;;;;;;5.30;3.00;;;;;;;13.62;90.78;95781.22;106610;1275;23965;-72
2023/06/07 02:39:33;;;;;;;3.90;3.20;;;;;;;13.67;91.77;95782.13;106780;1275;25395;-72
2023/06/07 02:42:01;;;;;;;3.00;2.70;;;;;;;13.76;91.70;95777.83;106568;1275;22520;-72
2023/06/07 02:44:29;;;;;;;5.20;3.10;;;;;;;13.77;90.90;95781.33;106678;1275;22521;-71
2023/06/07 02:46:58;;;;;;;5.30;3.10;;;;;;;13.78;91.03;95782.19;106728;1275;22632;-72
2023/06/07 02:49:27;;;;;;;4.80;3.20;;;;;;;13.83;91.13;95784.51;106603;1275;25489;-71
2023/06/07 02:51:55;;;;;;;6.80;3.00;;;;;;;13.89;91.12;95784.70;106612;1275;24058;-72
2023/06/07 02:54:23;;;;;;;3.60;2.90;;;;;;;13.95;90.82;95785.60;106703;1275;22542;-71
2023/06/07 02:56:51;;;;;;;3.90;2.70;;;;;;;13.93;90.29;95787.44;106599;1275;24267;-72
2023/06/07 02:59:19;;;;;;;3.60;2.80;;;;;;;13.91;90.41;95785.88;106599;1275;22649;-72
2023/06/07 03:01:48;;;;;;;4.60;3.00;;;;;;;13.93;90.58;95788.83;106669;1275;22523;-71
2023/06/07 03:04:18;;;;;;;4.70;3.00;;;;;;;13.95;90.60;95796.20;106644;1275;22515;-72
2023/06/07 03:06:48;;;;;;;4.40;2.50;;;;;;;13.95;90.09;95794.09;106645;1275;22662;-72
2023/06/07 03:09:24;;;;;;;3.40;2.80;;;;;;;13.91;89.96;95791.38;106703;1275;22630;-71
2023/06/07 03:11:53;;;;;;;6.60;2.60;;;;;;;13.86;89.51;95787.10;106680;1275;22529;-71
2023/06/07 03:14:23;;;;;;;5.00;2.70;;;;;;;13.81;89.85;95789.17;106750;1275;22785;-72
2023/06/07 03:16:52;;;;;;;4.90;2.70;;;;;;;13.85;90.17;95789.05;106740;1275;22524;-72
2023/06/07 03:19:21;;;;;;;3.70;2.60;;;;;;;13.81;89.87;95789.16;106664;1275;24075;-72
2023/06/07 03:21:53;;;;;;;3.80;2.90;;;;;;;13.74;89.68;95788.30;106211;1275;705852;-72
2023/06/07 03:24:23;;;;;;;3.90;2.80;;;;;;;13.75;90.10;95790.41;106574;1264;24255;-72
2023/06/07 03:26:52;;;;;;;2.70;2.40;;;;;;;13.76;90.22;95798.17;106645;1275;22534;-71
2023/06/07 03:29:20;;;;;;;2.60;2.40;;;;;;;13.70;89.77;95796.54;106620;1275;22521;-71
2023/06/07 03:31:48;;;;;;;4.20;2.90;;;;;;;13.67;89.96;95792.75;106628;1275;22772;-72
2023/06/07 03:34:18;;;;;;;4.80;2.70;;;;;;;13.66;90.14;95791.38;106766;1275;22582;-72
2023/06/07 03:36:47;;;;;;;3.10;2.80;;;;;;;13.66;89.97;95795.61;106757;1252;24758;-72
2023/06/07 03:39:17;;;;;;;3.20;2.90;;;;;;;13.63;90.00;95794.42;106698;1275;22464;-71
2023/06/07 03:41:45;;;;;;;4.00;2.40;;;;;;;13.65;90.93;95798.11;106567;1275;22517;-71
2023/06/07 03:44:17;;;;;;;5.70;2.90;;;;;;;13.73;91.21;95801.91;106673;1275;23146;-71
2023/06/07 03:46:46;;;;;;;4.40;2.80;;;;;;;13.79;90.87;95801.24;106646;1275;22517;-71
2023/06/07 03:49:15;;;;;;;3.70;3.20;;;;;;;13.78;90.38;95803.40;106647;1275;22834;-72
2023/06/07 03:51:43;;;;;;;3.70;2.90;;;;;;;13.83;91.20;95800.63;106699;1275;23031;-71
2023/06/07 03:54:13;;;;;;;3.20;2.80;;;;;;;13.97;91.49;95799.68;106592;1275;24353;-72
2023/06/07 03:56:43;;;;;;;4.70;3.00;;;;;;;14.11;91.62;95801.23;106638;1275;22521;-71
2023/06/07 03:59:12;;;;;;;3.90;3.30;;;;;;;14.26;91.63;95801.48;107023;1275;24272;-72
2023/06/07 04:01:42;;;;;;;6.00;3.50;;;;;;;14.39;91.22;95806.59;107032;1275;22637;-69
2023/06/07 04:04:10;;;;;;;6.50;3.40;;;;;;;14.47;90.55;95806.16;106602;1275;25370;-68
2023/06/07 04:06:39;;;;;;;4.50;3.40;;;;;;;14.46;89.27;95809.58;106673;1275;24409;-69
2023/06/07 04:09:08;;;;;;;4.50;3.30;;;;;;;14.45;89.80;95812.06;106525;1275;22660;-67
2023/06/07 04:11:36;;;;;;;4.50;3.70;;;;;;;14.43;89.15;95811.95;106742;1275;25437;-68
2023/06/07 04:14:05;;;;;;;6.30;3.80;;;;;;;14.40;89.33;95813.63;106703;1275;24258;-67
2023/06/07 04:16:33;;;;;;;5.60;3.20;;;;;;;14.40;89.78;95813.65;106630;1275;22536;-67
2023/06/07 04:19:02;;;;;;;4.20;3.10;;;;;;;14.38;89.83;95810.14;106699;1275;25366;-67
2023/06/07 04:21:32;;;;;;;4.30;2.90;;;;;;;14.39;89.59;95803.23;106692;1275;22518;-67
2023/06/07 04:24:03;;;;;;;3.50;3.00;;;;;;;14.39;89.38;95806.42;106790;1275;22521;-67
2023/06/07 04:26:33;;;;;;;5.50;3.80;;;;;;;14.38;89.59;95804.52;106734;1275;24053;-67
2023/06/07 04:29:02;;;;;;;9.30;3.00;;;;;;;14.40;90.04;95803.02;106655;1275;22612;-67
2023/06/07 04:31:34;;;;;;;3.80;3.30;;;;;;;14.44;90.21;95801.48;106627;1275;24574;-67
2023/06/07 04:34:05;;;;;;;3.40;2.80;;;;;;;14.48;90.18;95800.48;106749;1275;22806;-67
2023/06/07 04:36:37;;;;;;;4.70;3.20;;;;;;;14.50;89.83;95796.15;106720;1275;22553;-67
2023/06/07 04:39:09;;;;;;;4.00;3.20;;;;;;;14.46;88.94;95799.13;106705;1275;22515;-68
2023/06/07 04:41:42;;;;;;;3.50;2.80;;;;;;;14.39;88.63;95803.21;106771;1275;24342;-68
2023/06/07 04:44:28;;;;;;;3.40;2.90;;;;;;;14.36;88.66;95803.83;106764;1275;22809;-68
2023/06/07 04:47:05;;;;;;;4.70;3.20;;;;;;;14.42;88.84;95805.98;106706;1275;22517;-68
2023/06/07 04:49:40;;;;;;;5.10;2.90;;;;;;;14.46;88.82;95800.72;106610;1275;22620;-68
2023/06/07 04:52:12;;;;;;;6.00;2.60;;;;;;;14.52;88.94;95800.54;106692;1275;22763;-68
2023/06/07 04:54:46;;;;;;;5.10;2.60;;;;;;;14.56;88.66;95800.63;106612;1275;24320;-70
2023/06/07 04:57:16;;;;;;;6.70;2.90;;;;;;;14.52;88.58;95800.73;106711;1275;24381;-66
2023/06/07 04:59:48;;;;;;;5.40;2.80;;;;;;;14.46;88.18;95804.42;106725;1275;25351;-76
2023/06/07 05:02:20;;;;;;;4.90;3.30;;;;;;;14.45;88.38;95804.81;106689;1275;25484;-74
2023/06/07 05:04:52;;;;;;;4.50;3.00;;;;;;;14.50;88.67;95803.95;106562;1275;22925;-70
2023/06/07 05:07:21;;;;;;;4.00;3.10;;;;;;;14.52;88.32;95803.91;106585;1275;22540;-71
2023/06/07 05:09:50;;;;;;;4.50;3.30;;;;;;;14.47;87.96;95811.66;106712;1275;22510;-76
2023/06/07 05:12:20;;;;;;;4.60;3.00;;;;;;;14.42;88.38;95810.92;106743;1275;22510;-68
2023/06/07 05:14:48;;;;;;;4.00;3.20;;;;;;;14.50;89.17;95810.16;106630;1275;22526;-80
2023/06/07 05:17:19;;;;;;;5.30;3.20;;;;;;;14.55;88.72;95811.80;106686;1275;24255;-70
2023/06/07 05:19:50;;;;;;;4.60;3.00;;;;;;;14.58;88.62;95812.44;106614;1275;24349;-70
2023/06/07 05:22:19;;;;;;;4.40;2.90;;;;;;;14.56;88.53;95812.48;106769;1275;25403;-73
2023/06/07 05:24:47;;;;;;;4.10;3.60;;;;;;;14.59;88.76;95809.90;106651;1263;24326;-69
2023/06/07 05:27:17;;;;;;;9.80;3.30;;;;;;;14.73;89.31;95816.22;106678;1275;24249;-71
2023/06/07 05:29:45;;;;;;;5.20;3.10;;;;;;;14.84;89.17;95814.27;106661;1263;22521;-69
2023/06/07 05:32:14;;;;;;;3.70;3.20;;;;;;;14.94;89.08;95812.69;106596;1275;22525;-71
2023/06/07 05:34:45;;;;;;;4.30;2.70;;;;;;;15.01;88.67;95811.41;106620;1275;25344;-68
2023/06/07 05:37:14;;;;;;;6.60;3.10;;;;;;;14.99;87.62;95813.61;106757;1275;22537;-75
2023/06/07 05:39:45;;;;;;;3.80;3.30;;;;;;;14.91;87.27;95814.02;106678;1275;22524;-67
2023/06/07 05:42:14;;;;;;;18.10;10.80;;;;;;;14.90;87.99;95815.85;106603;1275;25255;-70
2023/06/07 05:44:48;;;;;;;8.80;5.00;;;;;;;14.95;88.13;95817.96;106625;1275;22871;-71
2023/06/07 05:47:17;;;;;;;89.00;54.50;;;;;;;14.99;87.91;95816.98;106644;1265;22586;-71
2023/06/07 05:49:46;;;;;;;77.90;39.20;;;;;;;14.96;87.78;95816.90;106617;1275;24206;-69
2023/06/07 05:52:15;;;;;;;13.80;6.90;;;;;;;14.95;87.92;95816.73;106604;1275;22567;-71
2023/06/07 05:54:54;;;;;;;8.10;4.40;;;;;;;14.90;87.51;95816.02;106717;1275;22524;-66
2023/06/07 05:57:22;;;;;;;19.40;17.60;;;;;;;14.82;87.58;95813.98;106730;1275;22537;-69
2023/06/07 05:59:50;;;;;;;13.20;9.90;;;;;;;14.76;87.67;95815.58;106716;1275;25968;-73
2023/06/07 06:02:20;;;;;;;9.40;7.60;;;;;;;14.75;88.68;95816.51;106731;1275;22537;-68
2023/06/07 06:04:53;;;;;;;5.90;3.60;;;;;;;14.76;88.63;95814.34;106626;1275;24042;-76
2023/06/07 06:07:21;;;;;;;16.50;14.90;;;;;;;14.76;88.16;95814.71;106661;1275;22513;-73
2023/06/07 06:09:49;;;;;;;8.50;7.70;;;;;;;14.73;88.60;95816.91;106738;1275;22630;-73
2023/06/07 06:12:18;;;;;;;60.00;39.20;;;;;;;14.74;89.20;95819.54;106723;1275;22531;-70
2023/06/07 06:14:46;;;;;;;115.70;103.30;;;;;;;14.75;89.05;95818.98;106662;1275;22517;-72
2023/06/07 06:17:14;;;;;;;7.10;6.40;;;;;;;14.75;88.94;95820.05;106691;1275;24051;-68
2023/06/07 06:19:44;;;;;;;13.20;11.90;;;;;;;14.81;89.51;95818.96;106735;1275;22591;-69
2023/06/07 06:22:12;;;;;;;17.90;16.10;;;;;;;14.83;88.55;95820.33;106764;1275;22518;-76
2023/06/07 06:24:40;;;;;;;7.30;5.70;;;;;;;14.84;89.10;95820.29;106678;1263;24193;-76
2023/06/07 06:27:11;;;;;;;5.40;4.40;;;;;;;14.90;89.57;95820.97;106669;1275;25360;-68
2023/06/07 06:29:41;;;;;;;7.20;5.80;;;;;;;14.99;89.06;95823.52;106733;1275;24220;-68
2023/06/07 06:32:10;;;;;;;9.80;7.10;;;;;;;15.05;88.82;95824.76;106740;1275;25379;-67
2023/06/07 06:34:38;;;;;;;11.40;7.80;;;;;;;15.12;88.29;95819.38;106757;1275;25533;-68
2023/06/07 06:37:06;;;;;;;6.60;3.80;;;;;;;15.12;87.90;95820.98;106727;1274;25523;-66
2023/06/07 06:39:34;;;;;;;7.30;3.30;;;;;;;15.27;89.14;95821.02;106643;1274;22516;-68
2023/06/07 06:42:03;;;;;;;6.50;4.00;;;;;;;15.45;88.59;95820.07;106704;1275;22525;-69
2023/06/07 06:45:01;;;;;;;6.30;4.80;;;;;;;15.69;88.63;95816.05;106446;1275;25994;-69
2023/06/07 06:47:29;;;;;;;9.30;7.70;;;;;;;15.91;88.22;95819.91;106626;1275;22523;-72
2023/06/07 06:50:00;;;;;;;10.60;9.40;;;;;;;16.07;87.28;95815.59;106683;1275;22650;-72
2023/06/07 06:52:28;;;;;;;5.80;4.60;;;;;;;16.25;87.50;95817.58;106664;1275;22528;-68
2023/06/07 06:54:57;;;;;;;5.30;3.60;;;;;;;16.42;87.34;95811.09;106541;1275;22638;-68
2023/06/07 06:57:25;;;;;;;4.80;3.90;;;;;;;16.47;84.67;95812.86;106496;1275;25496;-69
2023/06/07 06:59:53;;;;;;;6.80;4.20;;;;;;;16.47;84.40;95814.81;106643;1275;22526;-68
2023/06/07 07:02:22;;;;;;;8.90;3.90;;;;;;;16.40;83.96;95819.88;106517;1275;22515;-72
2023/06/07 07:04:50;;;;;;;5.70;5.20;;;;;;;16.34;83.82;95817.09;106743;1275;25451;-70
2023/06/07 07:07:18;;;;;;;7.00;5.70;;;;;;;16.34;83.86;95811.03;106661;1275;22517;-75
2023/06/07 07:09:46;;;;;;;6.70;4.10;;;;;;;16.31;84.50;95812.58;106634;1275;22514;-71
2023/06/07 07:12:16;;;;;;;4.80;4.10;;;;;;;16.40;85.48;95812.60;106615;1275;24449;-70
2023/06/07 07:14:44;;;;;;;5.30;4.10;;;;;;;16.46;85.13;95808.29;106548;1275;22526;-68
2023/06/07 07:17:13;;;;;;;7.00;5.20;;;;;;;16.52;84.36;95807.88;106578;1275;22519;-80
2023/06/07 07:19:41;;;;;;;5.30;3.70;;;;;;;16.62;84.51;95811.20;106574;1275;22565;-73
2023/06/07 07:22:09;;;;;;;4.50;3.90;;;;;;;16.73;84.62;95809.72;106541;1275;22538;-77
2023/06/07 07:24:38;;;;;;;5.50;3.40;;;;;;;16.91;84.89;95806.73;106587;1275;25503;-81
2023/06/07 07:27:07;;;;;;;5.10;3.60;;;;;;;17.04;85.11;95802.12;106682;1275;23146;-78
2023/06/07 07:29:35;;;;;;;5.30;3.60;;;;;;;17.17;83.88;95801.23;106622;1275;22566;-74
2023/06/07 07:32:05;;;;;;;4.40;3.60;;;;;;;17.21;82.78;95804.63;106646;1275;23890;-75
2023/06/07 07:34:33;;;;;;;4.80;4.10;;;;;;;17.23;82.90;95803.30;106783;1275;22651;-74
2023/06/07 07:37:02;;;;;;;6.40;4.20;;;;;;;17.21;82.41;95803.39;106608;1275;24380;-81
2023/06/07 07:39:32;;;;;;;6.30;3.50;;;;;;;17.15;82.23;95805.03;106637;1275;23071;-73
2023/06/07 07:42:03;;;;;;;4.60;3.90;;;;;;;17.09;82.50;95809.19;106665;1275;22543;-77
2023/06/07 07:44:32;;;;;;;3.60;3.30;;;;;;;17.09;82.56;95817.57;106648;1275;22526;-74
2023/06/07 07:47:01;;;;;;;3.90;3.60;;;;;;;17.09;82.19;95811.86;106604;1275;25350;-70
2023/06/07 07:49:29;;;;;;;5.30;3.20;;;;;;;17.17;82.41;95813.71;106547;1275;22549;-76
2023/06/07 07:51:57;;;;;;;3.70;3.40;;;;;;;17.25;82.34;95817.63;106583;1275;24193;-69
2023/06/07 07:54:26;;;;;;;5.10;3.10;;;;;;;17.27;81.47;95816.65;106889;1275;22510;-73
2023/06/07 07:56:54;;;;;;;4.10;3.10;;;;;;;17.30;82.03;95816.85;106659;1275;25194;-74
2023/06/07 07:59:22;;;;;;;5.60;3.30;;;;;;;17.29;81.34;95818.69;106541;1275;24537;-73
2023/06/07 08:01:51;;;;;;;4.30;3.40;;;;;;;17.27;81.46;95813.94;106940;1275;22753;-76
2023/06/07 08:04:20;;;;;;;3.70;3.40;;;;;;;17.35;82.07;95813.84;106790;1275;22711;-73
2023/06/07 08:06:48;;;;;;;3.80;3.40;;;;;;;17.53;82.26;95817.00;106557;1275;22629;-80
2023/06/07 08:09:16;;;;;;;4.00;3.50;;;;;;;17.71;81.78;95812.83;106552;1276;24218;-76
2023/06/07 08:11:46;;;;;;;3.80;2.90;;;;;;;17.94;81.15;95815.60;106567;1275;22517;-77
2023/06/07 08:14:15;;;;;;;4.50;3.80;;;;;;;18.12;79.80;95814.27;106663;1275;24248;-71
2023/06/07 08:16:44;;;;;;;5.20;3.50;;;;;;;18.30;79.44;95808.11;106629;1275;22526;-74
2023/06/07 08:19:13;;;;;;;5.50;3.20;;;;;;;18.44;79.68;95812.66;106643;1272;22776;-73
2023/06/07 08:21:43;;;;;;;4.50;3.60;;;;;;;18.49;78.11;95811.71;106927;1275;23005;-78
2023/06/07 08:24:12;;;;;;;4.00;3.30;;;;;;;18.57;78.35;95811.30;106748;1275;25223;-71
2023/06/07 08:26:44;;;;;;;4.90;3.70;;;;;;;18.62;77.06;95815.56;106684;1275;22534;-76
2023/06/07 08:29:12;;;;;;;6.00;4.00;;;;;;;18.69;77.39;95815.59;106656;1274;22745;-77
2023/06/07 08:31:43;;;;;;;9.50;6.20;;;;;;;18.79;76.40;95821.01;106661;1275;24320;-83
2023/06/07 08:34:11;;;;;;;5.40;3.90;;;;;;;18.89;76.73;95821.81;106625;1275;22523;-78
2023/06/07 08:36:41;;;;;;;25.40;15.20;;;;;;;18.98;76.41;95819.56;106651;1275;22569;-74
2023/06/07 08:39:09;;;;;;;4.20;3.80;;;;;;;18.98;75.33;95817.06;106888;1275;25186;-73
2023/06/07 08:41:39;;;;;;;4.50;4.00;;;;;;;19.04;75.14;95810.21;106642;1275;22514;-77
2023/06/07 08:44:07;;;;;;;7.70;4.30;;;;;;;19.18;75.83;95811.10;106635;1254;22595;-68
2023/06/07 08:46:36;;;;;;;5.90;3.70;;;;;;;19.37;76.09;95810.73;106823;1275;22993;-75
2023/06/07 08:49:05;;;;;;;6.30;4.40;;;;;;;19.50;75.32;95809.00;107107;1275;24183;-78
2023/06/07 08:51:36;;;;;;;5.50;4.80;;;;;;;19.61;75.33;95802.71;106981;1275;24256;-80
2023/06/07 08:54:06;;;;;;;8.20;6.40;;;;;;;19.62;74.37;95806.80;106719;1275;22527;-78
2023/06/07 08:56:35;;;;;;;6.20;3.50;;;;;;;19.64;74.25;95803.81;106611;1275;24346;-72
2023/06/07 08:59:04;;;;;;;3.90;3.20;;;;;;;19.74;74.83;95806.22;106641;1275;22560;-77
2023/06/07 09:01:37;;;;;;;4.00;3.40;;;;;;;19.87;74.41;95807.69;106646;1275;22520;-70
2023/06/07 09:04:07;;;;;;;3.90;3.20;;;;;;;19.96;72.67;95808.29;106638;1275;22525;-72
2023/06/07 09:06:35;;;;;;;3.50;3.10;;;;;;;19.96;72.07;95806.33;106738;1259;25455;-72
2023/06/07 09:09:04;;;;;;;4.40;3.70;;;;;;;19.95;71.25;95809.95;106713;1272;24253;-73
2023/06/07 09:11:33;;;;;;;4.60;3.30;;;;;;;19.94;72.00;95809.45;106741;1275;22530;-72
2023/06/07 09:14:01;;;;;;;7.30;3.60;;;;;;;19.98;71.82;95802.68;106816;1275;25620;-72
2023/06/07 09:16:30;;;;;;;4.30;3.30;;;;;;;20.07;72.33;95807.36;106895;1275;22653;-71
2023/06/07 09:18:58;;;;;;;3.90;3.40;;;;;;;20.25;72.12;95805.83;106694;1275;25277;-71
2023/06/07 09:21:28;;;;;;;4.70;3.30;;;;;;;20.35;70.91;95800.70;106659;1275;24050;-69
2023/06/07 09:24:00;;;;;;;4.20;3.70;;;;;;;20.40;70.88;95804.34;106563;1272;22517;-71
2023/06/07 09:26:37;;;;;;;7.30;3.50;;;;;;;20.43;70.47;95805.98;106539;1275;23870;-71
2023/06/07 09:29:08;;;;;;;6.00;3.20;;;;;;;20.51;70.49;95809.11;106535;1275;24240;-70
2023/06/07 09:31:37;;;;;;;4.30;3.50;;;;;;;20.48;68.38;95805.34;106625;1275;25661;-71
2023/06/07 09:34:21;;;;;;;5.20;3.60;;;;;;;20.43;68.92;95807.75;107020;1275;24377;-70
2023/06/07 09:36:53;;;;;;;;;;;;;;;20.42;68.91;95802.60;106844;1275;22491;-71
2023/06/07 09:39:23;;;;;;;4.30;3.90;;;;;;;20.31;67.89;95805.55;107014;1275;24237;-71
2023/06/07 09:41:54;;;;;;;4.30;3.50;;;;;;;20.20;68.70;95805.40;106807;1275;24372;-71
2023/06/07 09:44:30;;;;;;;6.50;3.90;;;;;;;20.15;70.02;95807.48;106485;1275;24219;-70
2023/06/07 09:46:59;;;;;;;5.10;3.50;;;;;;;20.09;70.56;95804.55;106778;1270;22518;-70
2023/06/07 09:49:34;;;;;;;4.70;3.80;;;;;;;20.05;70.84;95803.90;106610;1275;23946;-71
2023/06/07 09:52:11;;;;;;;7.30;3.70;;;;;;;20.06;70.98;95802.08;106644;1275;22520;-70
2023/06/07 09:54:42;;;;;;;5.10;3.60;;;;;;;20.16;71.34;95804.02;106951;1275;22550;-71
2023/06/07 09:57:27;;;;;;;4.50;3.90;;;;;;;20.12;70.34;95800.64;106751;1275;22743;-71
2023/06/07 10:00:14;;;;;;;3.80;3.50;;;;;;;20.03;70.62;95793.82;106637;1275;22637;-71
2023/06/07 10:02:45;;;;;;;7.70;3.40;;;;;;;20.13;71.61;95794.91;106620;1275;25562;-71
2023/06/07 10:05:21;;;;;;;4.70;4.10;;;;;;;20.22;70.38;95791.04;106989;1275;25819;-71
2023/06/07 10:07:56;;;;;;;7.00;4.40;;;;;;;20.21;69.53;95787.84;106983;1275;25343;-71
2023/06/07 10:10:26;;;;;;;7.40;4.30;;;;;;;20.24;69.58;95786.23;106892;1275;23919;-71
2023/06/07 10:12:58;;;;;;;7.50;4.70;;;;;;;20.32;69.82;95786.54;106552;1275;22640;-72
2023/06/07 10:15:26;;;;;;;5.80;3.60;;;;;;;20.49;71.16;95777.56;106632;1275;24322;-71
2023/06/07 10:18:05;;;;;;;4.20;3.60;;;;;;;20.73;70.36;95781.48;106660;1275;22524;-71
2023/06/07 10:20:41;;;;;;;6.80;4.30;;;;;;;21.23;71.96;95770.05;106643;1275;22640;-71
2023/06/07 10:23:19;;;;;;;4.60;3.40;;;;;;;21.85;71.10;95770.90;106633;1275;22527;-72
2023/06/07 10:26:13;;;;;;;8.90;3.50;;;;;;;22.12;69.63;95771.45;106550;1275;22646;-71
2023/06/07 10:28:50;;;;;;;4.70;3.40;;;;;;;22.25;67.62;95770.09;106592;1275;22530;-71
2023/06/07 10:31:27;;;;;;;5.10;3.20;;;;;;;22.12;65.84;95768.56;106734;1275;25403;-72
2023/06/07 10:33:56;;;;;;;4.40;3.30;;;;;;;21.90;65.89;95765.21;106643;1275;24429;-71
2023/06/07 10:36:25;;;;;;;5.90;3.70;;;;;;;21.89;67.56;95767.62;106619;1275;24262;-71
2023/06/07 10:38:54;;;;;;;3.80;3.40;;;;;;;21.94;67.37;95765.70;106641;1275;22517;-71
2023/06/07 10:41:23;;;;;;;4.10;3.40;;;;;;;21.94;67.03;95766.59;106606;1275;22546;-71
2023/06/07 10:43:52;;;;;;;7.30;3.70;;;;;;;21.98;67.38;95761.30;106634;1275;22537;-71
2023/06/07 10:46:25;;;;;;;5.80;3.60;;;;;;;22.06;67.08;95755.65;106575;1275;24197;-72
2023/06/07 10:48:55;;;;;;;5.20;3.70;;;;;;;22.06;67.34;95753.50;106628;1275;25535;-72
2023/06/07 10:51:48;;;;;;;5.20;3.90;;;;;;;21.98;66.60;95753.09;106645;1260;25201;-71
2023/06/07 10:54:34;;;;;;;6.90;4.00;;;;;;;21.75;66.37;95754.29;106976;1275;25518;-71
2023/06/07 10:57:02;;;;;;;5.80;4.10;;;;;;;21.65;67.10;95754.94;106952;1275;24225;-72
2023/06/07 10:59:31;;;;;;;4.10;3.70;;;;;;;21.56;67.07;95753.84;106914;1275;25347;-71
2023/06/07 11:02:20;;;;;;;9.30;3.90;;;;;;;21.61;68.32;95753.00;106591;1275;24203;-72
2023/06/07 11:05:00;;;;;;;7.00;4.00;;;;;;;21.69;67.69;95746.47;106630;1275;22536;-72
2023/06/07 11:07:32;;;;;;;3.40;3.10;;;;;;;21.96;67.50;95739.59;106640;1275;22551;-71
2023/06/07 11:10:00;;;;;;;5.70;3.70;;;;;;;22.06;65.58;95738.84;106564;1275;24059;-71
2023/06/07 11:12:35;;;;;;;6.00;3.90;;;;;;;21.94;64.35;95734.53;106624;1275;23287;-71
2023/06/07 11:15:35;;;;;;;3.90;3.50;;;;;;;21.76;64.18;95737.98;106576;1275;22514;-71
2023/06/07 11:18:08;;;;;;;4.70;3.40;;;;;;;21.41;64.16;95731.24;106594;1275;24096;-71
2023/06/07 11:20:45;;;;;;;4.20;3.70;;;;;;;21.26;66.41;95728.39;106632;1275;22523;-71
2023/06/07 11:23:22;;;;;;;5.00;3.40;;;;;;;21.17;67.60;95727.09;106609;1275;25214;-71
2023/06/07 11:26:10;;;;;;;6.80;4.00;;;;;;;21.10;68.45;95729.11;106586;1275;22510;-71
2023/06/07 11:28:41;;;;;;;4.50;3.80;;;;;;;21.04;69.24;95728.23;106567;1275;24414;-71
2023/06/07 11:31:13;;;;;;;6.90;3.70;;;;;;;20.95;69.78;95727.67;106570;1275;22583;-71
2023/06/07 11:33:42;;;;;;;7.00;4.00;;;;;;;20.84;70.00;95725.44;106585;1275;22609;-71
2023/06/07 11:36:10;;;;;;;7.60;4.00;;;;;;;20.72;70.31;95725.41;106803;1275;24197;-71
2023/06/07 11:38:41;;;;;;;7.50;4.50;;;;;;;20.62;71.13;95730.25;106902;1275;26509;-71
2023/06/07 11:41:10;;;;;;;5.50;4.20;;;;;;;20.51;71.56;95733.17;106612;1275;24362;-71